sensor_id;sensor_type;location;lat;lon;timestamp;pressure;altitude;pressure_sealevel;temperature;humidity
22572;BME280;11452;53.368;14.658;2022-12-16T00:02:13;100647.52;;;-0.66;69.27
22572;BME280;11452;53.368;14.658;2022-12-16T00:07:18;100629.55;;;-0.62;69.30
22572;BME280;11452;53.368;14.658;2022-12-16T00:12:24;100618.90;;;-0.51;69.58
22572;BME280;11452;53.368;14.658;2022-12-16T00:17:29;100626.92;;;-0.62;68.44
22572;BME280;11452;53.368;14.658;2022-12-16T00:22:35;100634.01;;;-0.70;69.12
22572;BME280;11452;53.368;14.658;2022-12-16T00:27:40;100646.20;;;-0.66;69.08
22572;BME280;11452;53.368;14.658;2022-12-16T00:32:46;100647.98;;;-0.68;68.78
22572;BME280;11452;53.368;14.658;2022-12-16T00:37:51;100652.54;;;-0.84;68.84
22572;BME280;11452;53.368;14.658;2022-12-16T00:42:58;100654.69;;;-0.80;68.94
22572;BME280;11452;53.368;14.658;2022-12-16T00:48:04;100654.65;;;-0.76;69.28
22572;BME280;11452;53.368;14.658;2022-12-16T00:53:09;100658.52;;;-0.73;69.08
22572;BME280;11452;53.368;14.658;2022-12-16T00:58:15;100669.56;;;-0.81;68.92
22572;BME280;11452;53.368;14.658;2022-12-16T01:03:20;100666.39;;;-0.73;69.35
22572;BME280;11452;53.368;14.658;2022-12-16T01:08:26;100673.79;;;-0.69;69.28
22572;BME280;11452;53.368;14.658;2022-12-16T01:13:32;100678.58;;;-0.67;69.07
22572;BME280;11452;53.368;14.658;2022-12-16T01:18:39;100687.32;;;-0.66;68.97
22572;BME280;11452;53.368;14.658;2022-12-16T01:23:45;100684.39;;;-0.77;68.86
22572;BME280;11452;53.368;14.658;2022-12-16T01:28:51;100683.38;;;-0.65;69.26
22572;BME280;11452;53.368;14.658;2022-12-16T01:33:58;100687.25;;;-0.59;69.07
22572;BME280;11452;53.368;14.658;2022-12-16T01:39:03;100693.80;;;-0.59;68.96
22572;BME280;11452;53.368;14.658;2022-12-16T01:44:14;100690.28;;;-0.56;69.13
22572;BME280;11452;53.368;14.658;2022-12-16T01:54:37;100693.30;;;-0.55;68.92
22572;BME280;11452;53.368;14.658;2022-12-16T01:59:42;100697.96;;;-0.79;68.44
22572;BME280;11452;53.368;14.658;2022-12-16T02:04:49;100696.63;;;-0.77;68.64
22572;BME280;11452;53.368;14.658;2022-12-16T02:10:13;100696.72;;;-0.86;68.67
22572;BME280;11452;53.368;14.658;2022-12-16T02:15:39;100696.20;;;-0.77;68.87
22572;BME280;11452;53.368;14.658;2022-12-16T02:26:34;100694.37;;;-0.73;68.84
22572;BME280;11452;53.368;14.658;2022-12-16T02:36:46;100690.84;;;-0.69;68.77
22572;BME280;11452;53.368;14.658;2022-12-16T02:46:58;100689.31;;;-0.51;68.83
22572;BME280;11452;53.368;14.658;2022-12-16T02:52:04;100688.43;;;-0.50;68.77
22572;BME280;11452;53.368;14.658;2022-12-16T03:03:07;100678.36;;;-0.49;68.72
22572;BME280;11452;53.368;14.658;2022-12-16T03:08:31;100675.33;;;-0.51;68.43
22572;BME280;11452;53.368;14.658;2022-12-16T03:13:34;100674.83;;;-0.46;68.74
22572;BME280;11452;53.368;14.658;2022-12-16T03:18:41;100674.86;;;-0.49;68.39
22572;BME280;11452;53.368;14.658;2022-12-16T03:23:53;100673.57;;;-0.51;68.52
22572;BME280;11452;53.368;14.658;2022-12-16T03:29:07;100669.37;;;-0.64;68.29
22572;BME280;11452;53.368;14.658;2022-12-16T03:34:31;100668.13;;;-0.72;68.53
22572;BME280;11452;53.368;14.658;2022-12-16T03:39:37;100673.76;;;-0.66;68.62
22572;BME280;11452;53.368;14.658;2022-12-16T03:44:44;100672.84;;;-0.62;68.57
22572;BME280;11452;53.368;14.658;2022-12-16T03:49:50;100674.19;;;-0.65;68.30
22572;BME280;11452;53.368;14.658;2022-12-16T03:54:55;100686.60;;;-0.79;67.80
22572;BME280;11452;53.368;14.658;2022-12-16T04:00:01;100684.42;;;-0.80;68.29
22572;BME280;11452;53.368;14.658;2022-12-16T04:05:09;100683.00;;;-0.72;68.28
22572;BME280;11452;53.368;14.658;2022-12-16T04:10:15;100688.77;;;-0.77;68.04
22572;BME280;11452;53.368;14.658;2022-12-16T04:15:20;100679.92;;;-0.70;68.24
22572;BME280;11452;53.368;14.658;2022-12-16T04:20:46;100682.52;;;-0.67;68.12
22572;BME280;11452;53.368;14.658;2022-12-16T04:26:12;100690.87;;;-0.72;67.98
22572;BME280;11452;53.368;14.658;2022-12-16T04:31:18;100676.88;;;-0.73;67.94
22572;BME280;11452;53.368;14.658;2022-12-16T04:36:23;100688.37;;;-0.83;67.98
22572;BME280;11452;53.368;14.658;2022-12-16T04:41:50;100694.51;;;-0.84;68.10
22572;BME280;11452;53.368;14.658;2022-12-16T04:47:12;100695.35;;;-0.80;67.99
22572;BME280;11452;53.368;14.658;2022-12-16T04:52:35;100687.94;;;-0.82;68.23
22572;BME280;11452;53.368;14.658;2022-12-16T04:58:00;100695.42;;;-0.88;68.17
22572;BME280;11452;53.368;14.658;2022-12-16T05:03:24;100700.20;;;-0.84;68.26
22572;BME280;11452;53.368;14.658;2022-12-16T05:08:48;100690.11;;;-0.80;68.35
22572;BME280;11452;53.368;14.658;2022-12-16T05:14:12;100702.42;;;-0.88;68.25
22572;BME280;11452;53.368;14.658;2022-12-16T05:19:35;100702.81;;;-0.84;68.50
22572;BME280;11452;53.368;14.658;2022-12-16T05:24:58;100703.74;;;-0.90;68.37
22572;BME280;11452;53.368;14.658;2022-12-16T05:30:22;100703.33;;;-0.92;68.47
22572;BME280;11452;53.368;14.658;2022-12-16T05:35:45;100708.52;;;-0.86;68.43
22572;BME280;11452;53.368;14.658;2022-12-16T05:41:09;100708.90;;;-0.79;68.64
22572;BME280;11452;53.368;14.658;2022-12-16T05:46:32;100713.02;;;-0.97;68.36
22572;BME280;11452;53.368;14.658;2022-12-16T05:51:56;100717.48;;;-1.10;67.94
22572;BME280;11452;53.368;14.658;2022-12-16T05:57:20;100725.88;;;-1.18;68.55
22572;BME280;11452;53.368;14.658;2022-12-16T06:02:43;100731.87;;;-1.06;69.00
22572;BME280;11452;53.368;14.658;2022-12-16T06:08:07;100741.01;;;-0.99;68.81
22572;BME280;11452;53.368;14.658;2022-12-16T06:13:31;100751.95;;;-1.01;68.82
22572;BME280;11452;53.368;14.658;2022-12-16T06:18:54;100760.58;;;-0.90;69.00
22572;BME280;11452;53.368;14.658;2022-12-16T06:24:18;100761.89;;;-0.90;69.07
22572;BME280;11452;53.368;14.658;2022-12-16T06:29:41;100766.66;;;-0.85;69.16
22572;BME280;11452;53.368;14.658;2022-12-16T06:35:05;100776.15;;;-0.74;69.15
22572;BME280;11452;53.368;14.658;2022-12-16T06:40:29;100780.14;;;-0.77;68.86
22572;BME280;11452;53.368;14.658;2022-12-16T06:45:52;100782.27;;;-0.73;69.22
22572;BME280;11452;53.368;14.658;2022-12-16T06:51:15;100784.00;;;-0.71;69.15
22572;BME280;11452;53.368;14.658;2022-12-16T06:56:39;100791.36;;;-0.62;69.19
22572;BME280;11452;53.368;14.658;2022-12-16T07:02:02;100791.33;;;-0.58;69.21
22572;BME280;11452;53.368;14.658;2022-12-16T07:07:26;100800.52;;;-0.58;69.14
22572;BME280;11452;53.368;14.658;2022-12-16T07:12:42;100810.19;;;-0.64;68.78
22572;BME280;11452;53.368;14.658;2022-12-16T07:18:06;100817.13;;;-0.57;69.09
22572;BME280;11452;53.368;14.658;2022-12-16T07:23:29;100818.38;;;-0.53;69.00
22572;BME280;11452;53.368;14.658;2022-12-16T07:28:54;100831.48;;;-0.51;69.09
22572;BME280;11452;53.368;14.658;2022-12-16T07:34:17;100832.76;;;-0.47;68.85
22572;BME280;11452;53.368;14.658;2022-12-16T07:39:42;100843.92;;;-0.73;68.51
22572;BME280;11452;53.368;14.658;2022-12-16T07:45:06;100851.73;;;-0.64;69.04
22572;BME280;11452;53.368;14.658;2022-12-16T07:50:30;100856.88;;;-0.55;69.13
22572;BME280;11452;53.368;14.658;2022-12-16T07:55:54;100873.47;;;-0.50;68.85
22572;BME280;11452;53.368;14.658;2022-12-16T08:01:17;100891.48;;;-0.57;68.74
22572;BME280;11452;53.368;14.658;2022-12-16T08:06:41;100899.87;;;-0.68;68.85
22572;BME280;11452;53.368;14.658;2022-12-16T08:12:04;100911.11;;;-0.54;69.26
22572;BME280;11452;53.368;14.658;2022-12-16T08:17:27;100907.52;;;-0.41;69.22
22572;BME280;11452;53.368;14.658;2022-12-16T08:22:51;100921.98;;;-0.44;68.94
22572;BME280;11452;53.368;14.658;2022-12-16T08:28:14;100927.59;;;-0.37;69.13
22572;BME280;11452;53.368;14.658;2022-12-16T08:33:38;100933.67;;;-0.31;69.11
22572;BME280;11452;53.368;14.658;2022-12-16T08:39:01;100940.62;;;-0.23;69.16
22572;BME280;11452;53.368;14.658;2022-12-16T08:44:24;100939.66;;;-0.16;69.08
22572;BME280;11452;53.368;14.658;2022-12-16T08:49:48;100948.50;;;-0.24;68.69
22572;BME280;11452;53.368;14.658;2022-12-16T08:55:11;100952.70;;;-0.05;69.12
22572;BME280;11452;53.368;14.658;2022-12-16T09:00:35;100944.29;;;0.03;68.86
22572;BME280;11452;53.368;14.658;2022-12-16T09:05:58;100946.47;;;0.04;68.72
22572;BME280;11452;53.368;14.658;2022-12-16T09:11:22;100944.55;;;0.19;69.04
22572;BME280;11452;53.368;14.658;2022-12-16T09:16:46;100948.56;;;0.16;68.27
22572;BME280;11452;53.368;14.658;2022-12-16T09:22:10;100968.58;;;0.26;68.83
22572;BME280;11452;53.368;14.658;2022-12-16T09:27:33;100963.67;;;0.37;68.59
22572;BME280;11452;53.368;14.658;2022-12-16T09:32:57;100953.52;;;0.41;68.37
22572;BME280;11452;53.368;14.658;2022-12-16T09:38:22;100959.09;;;0.54;68.41
22572;BME280;11452;53.368;14.658;2022-12-16T09:43:55;100954.34;;;0.47;68.12
22572;BME280;11452;53.368;14.658;2022-12-16T09:49:27;100955.49;;;0.59;67.95
22572;BME280;11452;53.368;14.658;2022-12-16T09:54:48;100956.48;;;0.51;67.42
22572;BME280;11452;53.368;14.658;2022-12-16T10:00:18;100966.61;;;0.47;67.42
22572;BME280;11452;53.368;14.658;2022-12-16T10:05:57;100960.95;;;0.43;67.34
22572;BME280;11452;53.368;14.658;2022-12-16T10:11:21;100963.67;;;0.37;67.17
22572;BME280;11452;53.368;14.658;2022-12-16T10:22:24;100959.76;;;0.33;67.41
22572;BME280;11452;53.368;14.658;2022-12-16T10:27:48;100961.97;;;0.31;67.02
22572;BME280;11452;53.368;14.658;2022-12-16T10:33:14;100965.19;;;0.17;66.95
22572;BME280;11452;53.368;14.658;2022-12-16T10:38:44;100957.39;;;0.08;67.42
22572;BME280;11452;53.368;14.658;2022-12-16T10:44:21;100960.30;;;0.22;67.73
22572;BME280;11452;53.368;14.658;2022-12-16T10:49:43;100964.61;;;0.29;68.10
22572;BME280;11452;53.368;14.658;2022-12-16T11:00:48;100972.72;;;0.07;67.60
22572;BME280;11452;53.368;14.658;2022-12-16T11:06:18;100966.96;;;0.15;67.50
22572;BME280;11452;53.368;14.658;2022-12-16T11:11:41;100974.52;;;0.02;67.66
22572;BME280;11452;53.368;14.658;2022-12-16T11:17:19;100977.45;;;0.18;68.34
22572;BME280;11452;53.368;14.658;2022-12-16T11:22:42;100976.95;;;0.20;67.68
22572;BME280;11452;53.368;14.658;2022-12-16T11:28:11;100982.27;;;0.18;68.51
22572;BME280;11452;53.368;14.658;2022-12-16T11:33:34;100978.16;;;0.33;68.62
22572;BME280;11452;53.368;14.658;2022-12-16T11:39:00;100979.91;;;0.33;68.17
22572;BME280;11452;53.368;14.658;2022-12-16T11:44:32;100989.95;;;0.37;68.43
22572;BME280;11452;53.368;14.658;2022-12-16T11:49:56;100990.33;;;0.41;68.14
22572;BME280;11452;53.368;14.658;2022-12-16T11:55:26;100990.48;;;0.25;67.96
22572;BME280;11452;53.368;14.658;2022-12-16T12:01:04;100992.88;;;0.48;68.65
22572;BME280;11452;53.368;14.658;2022-12-16T12:06:54;100989.34;;;0.52;68.04
22572;BME280;11452;53.368;14.658;2022-12-16T12:23:57;100995.34;;;0.62;68.05
22572;BME280;11452;53.368;14.658;2022-12-16T12:35:24;101015.90;;;0.67;68.47
22572;BME280;11452;53.368;14.658;2022-12-16T12:40:55;101011.81;;;0.78;68.46
22572;BME280;11452;53.368;14.658;2022-12-16T12:57:43;101021.78;;;0.89;68.33
22572;BME280;11452;53.368;14.658;2022-12-16T13:09:01;101027.02;;;0.92;68.23
22572;BME280;11452;53.368;14.658;2022-12-16T13:19:58;101029.12;;;0.97;68.29
22572;BME280;11452;53.368;14.658;2022-12-16T13:25:43;101044.36;;;1.07;68.38
22572;BME280;11452;53.368;14.658;2022-12-16T13:31:07;101041.92;;;0.91;68.03
22572;BME280;11452;53.368;14.658;2022-12-16T13:36:35;101047.56;;;0.94;68.14
22572;BME280;11452;53.368;14.658;2022-12-16T13:41:59;101051.95;;;0.93;68.21
22572;BME280;11452;53.368;14.658;2022-12-16T13:53:06;101061.44;;;1.10;68.01
22572;BME280;11452;53.368;14.658;2022-12-16T13:58:29;101064.64;;;0.97;68.20
22572;BME280;11452;53.368;14.658;2022-12-16T14:03:52;101062.47;;;0.95;68.15
22572;BME280;11452;53.368;14.658;2022-12-16T14:09:42;101075.04;;;1.09;68.30
22572;BME280;11452;53.368;14.658;2022-12-16T14:15:15;101076.00;;;1.00;68.20
22572;BME280;11452;53.368;14.658;2022-12-16T14:20:35;101085.19;;;1.03;68.19
22572;BME280;11452;53.368;14.658;2022-12-16T14:25:59;101096.14;;;1.04;68.17
22572;BME280;11452;53.368;14.658;2022-12-16T14:31:29;101100.57;;;0.99;68.06
22572;BME280;11452;53.368;14.658;2022-12-16T14:36:54;101106.73;;;0.97;67.86
22572;BME280;11452;53.368;14.658;2022-12-16T14:42:23;101115.70;;;0.79;67.60
22572;BME280;11452;53.368;14.658;2022-12-16T14:47:46;101118.35;;;0.76;68.08
22572;BME280;11452;53.368;14.658;2022-12-16T14:53:21;101120.16;;;0.74;68.06
22572;BME280;11452;53.368;14.658;2022-12-16T14:58:44;101130.67;;;0.74;68.05
22572;BME280;11452;53.368;14.658;2022-12-16T15:04:08;101133.68;;;0.78;68.21
22572;BME280;11452;53.368;14.658;2022-12-16T15:09:37;101129.27;;;0.82;68.34
22572;BME280;11452;53.368;14.658;2022-12-16T15:15:02;101139.81;;;0.79;68.21
22572;BME280;11452;53.368;14.658;2022-12-16T15:20:27;101140.64;;;0.85;68.37
22572;BME280;11452;53.368;14.658;2022-12-16T15:25:53;101150.25;;;0.89;68.37
22572;BME280;11452;53.368;14.658;2022-12-16T15:31:24;101161.67;;;0.87;68.39
22572;BME280;11452;53.368;14.658;2022-12-16T15:36:47;101170.77;;;0.96;68.51
22572;BME280;11452;53.368;14.658;2022-12-16T15:42:19;101170.75;;;0.99;68.57
22572;BME280;11452;53.368;14.658;2022-12-16T15:47:47;101176.88;;;0.99;68.39
22572;BME280;11452;53.368;14.658;2022-12-16T15:59:11;101186.58;;;0.93;68.44
22572;BME280;11452;53.368;14.658;2022-12-16T16:04:28;101180.54;;;0.85;68.20
22572;BME280;11452;53.368;14.658;2022-12-16T16:09:53;101194.47;;;0.93;68.53
22572;BME280;11452;53.368;14.658;2022-12-16T16:15:18;101197.08;;;0.96;68.58
22572;BME280;11452;53.368;14.658;2022-12-16T16:20:41;101198.95;;;0.86;68.17
22572;BME280;11452;53.368;14.658;2022-12-16T16:26:06;101205.22;;;0.72;68.19
22572;BME280;11452;53.368;14.658;2022-12-16T16:31:30;101208.71;;;0.74;68.73
22572;BME280;11452;53.368;14.658;2022-12-16T16:36:55;101223.52;;;0.82;68.69
22572;BME280;11452;53.368;14.658;2022-12-16T16:42:20;101235.80;;;0.82;68.92
22572;BME280;11452;53.368;14.658;2022-12-16T16:47:44;101236.20;;;0.87;68.94
22572;BME280;11452;53.368;14.658;2022-12-16T16:53:16;101237.50;;;0.90;68.84
22572;BME280;11452;53.368;14.658;2022-12-16T16:58:33;101237.41;;;0.98;69.05
22572;BME280;11452;53.368;14.658;2022-12-16T17:03:57;101237.86;;;0.96;69.01
22572;BME280;11452;53.368;14.658;2022-12-16T17:09:21;101250.67;;;0.87;69.06
22572;BME280;11452;53.368;14.658;2022-12-16T17:14:45;101254.63;;;0.87;69.12
22572;BME280;11452;53.368;14.658;2022-12-16T17:20:13;101257.61;;;0.94;69.12
22572;BME280;11452;53.368;14.658;2022-12-16T17:25:37;101255.50;;;0.88;69.29
22572;BME280;11452;53.368;14.658;2022-12-16T17:31:00;101261.17;;;0.90;69.27
22572;BME280;11452;53.368;14.658;2022-12-16T17:36:24;101262.52;;;0.86;69.33
22572;BME280;11452;53.368;14.658;2022-12-16T17:41:49;101258.98;;;0.91;69.65
22572;BME280;11452;53.368;14.658;2022-12-16T17:47:12;101257.70;;;0.85;69.61
22572;BME280;11452;53.368;14.658;2022-12-16T17:52:53;101259.88;;;0.89;69.75
22572;BME280;11452;53.368;14.658;2022-12-16T17:58:17;101270.82;;;0.91;69.79
22572;BME280;11452;53.368;14.658;2022-12-16T18:03:41;101283.53;;;0.92;69.91
22572;BME280;11452;53.368;14.658;2022-12-16T18:09:04;101278.59;;;1.03;70.19
22572;BME280;11452;53.368;14.658;2022-12-16T18:14:28;101284.27;;;1.09;70.17
22572;BME280;11452;53.368;14.658;2022-12-16T18:19:51;101291.30;;;1.06;70.19
22572;BME280;11452;53.368;14.658;2022-12-16T18:25:15;101296.12;;;1.08;70.09
22572;BME280;11452;53.368;14.658;2022-12-16T18:30:38;101304.02;;;1.06;69.87
22572;BME280;11452;53.368;14.658;2022-12-16T18:36:02;101302.33;;;0.96;70.19
22572;BME280;11452;53.368;14.658;2022-12-16T18:41:26;101301.47;;;0.94;70.31
22572;BME280;11452;53.368;14.658;2022-12-16T18:46:49;101313.72;;;0.98;70.32
22572;BME280;11452;53.368;14.658;2022-12-16T18:52:13;101314.13;;;1.02;70.34
22572;BME280;11452;53.368;14.658;2022-12-16T18:57:36;101317.70;;;0.93;70.38
22572;BME280;11452;53.368;14.658;2022-12-16T19:02:59;101333.25;;;1.25;70.32
22572;BME280;11452;53.368;14.658;2022-12-16T19:08:23;101333.73;;;1.19;70.34
22572;BME280;11452;53.368;14.658;2022-12-16T19:13:33;101335.89;;;1.24;70.45
22572;BME280;11452;53.368;14.658;2022-12-16T19:18:56;101326.31;;;1.14;70.39
22572;BME280;11452;53.368;14.658;2022-12-16T19:24:22;101332.41;;;1.20;70.29
22572;BME280;11452;53.368;14.658;2022-12-16T19:29:45;101342.24;;;2.61;66.42
22572;BME280;11452;53.368;14.658;2022-12-16T19:35:09;101339.13;;;1.53;68.75
22572;BME280;11452;53.368;14.658;2022-12-16T19:40:32;101337.11;;;1.34;69.44
22572;BME280;11452;53.368;14.658;2022-12-16T19:45:57;101337.11;;;1.34;69.65
22572;BME280;11452;53.368;14.658;2022-12-16T19:51:21;101353.52;;;1.64;68.58
22572;BME280;11452;53.368;14.658;2022-12-16T19:56:44;101353.33;;;1.37;69.69
22572;BME280;11452;53.368;14.658;2022-12-16T20:02:11;101357.41;;;1.22;69.67
22572;BME280;11452;53.368;14.658;2022-12-16T20:07:34;101366.63;;;1.20;70.00
22572;BME280;11452;53.368;14.658;2022-12-16T20:12:59;101367.11;;;1.12;69.95
22572;BME280;11452;53.368;14.658;2022-12-16T20:18:24;101376.37;;;1.09;69.93
22572;BME280;11452;53.368;14.658;2022-12-16T20:23:48;101385.14;;;1.11;70.13
22572;BME280;11452;53.368;14.658;2022-12-16T20:29:12;101397.03;;;1.00;69.95
22572;BME280;11452;53.368;14.658;2022-12-16T20:34:35;101398.36;;;1.00;70.21
22572;BME280;11452;53.368;14.658;2022-12-16T20:39:59;101419.05;;;0.89;70.14
22572;BME280;11452;53.368;14.658;2022-12-16T20:45:23;101422.22;;;2.30;66.94
22572;BME280;11452;53.368;14.658;2022-12-16T20:50:54;101433.16;;;1.44;68.92
22572;BME280;11452;53.368;14.658;2022-12-16T20:56:20;101431.53;;;1.26;69.48
22572;BME280;11452;53.368;14.658;2022-12-16T21:01:44;101432.11;;;1.06;69.52
22572;BME280;11452;53.368;14.658;2022-12-16T21:07:09;101444.48;;;0.90;69.46
22572;BME280;11452;53.368;14.658;2022-12-16T21:12:32;101448.46;;;0.79;69.57
22572;BME280;11452;53.368;14.658;2022-12-16T21:17:59;101456.00;;;0.61;69.53
22572;BME280;11452;53.368;14.658;2022-12-16T21:23:22;101458.19;;;0.60;69.70
22572;BME280;11452;53.368;14.658;2022-12-16T21:28:46;101462.14;;;0.56;69.73
22572;BME280;11452;53.368;14.658;2022-12-16T21:34:10;101466.13;;;0.47;69.57
22572;BME280;11452;53.368;14.658;2022-12-16T21:39:34;101467.94;;;0.37;69.59
22572;BME280;11452;53.368;14.658;2022-12-16T21:44:58;101470.57;;;0.28;69.59
22572;BME280;11452;53.368;14.658;2022-12-16T21:50:21;101471.05;;;0.15;69.51
22572;BME280;11452;53.368;14.658;2022-12-16T21:55:52;101464.91;;;0.04;69.44
22572;BME280;11452;53.368;14.658;2022-12-16T22:01:16;101475.89;;;-0.06;69.49
22572;BME280;11452;53.368;14.658;2022-12-16T22:06:39;101475.44;;;-0.16;69.50
22572;BME280;11452;53.368;14.658;2022-12-16T22:12:03;101486.84;;;-0.27;69.47
22572;BME280;11452;53.368;14.658;2022-12-16T22:17:26;101485.09;;;-0.38;69.53
22572;BME280;11452;53.368;14.658;2022-12-16T22:22:50;101488.59;;;-0.43;69.59
22572;BME280;11452;53.368;14.658;2022-12-16T22:28:13;101488.55;;;-0.54;69.53
22572;BME280;11452;53.368;14.658;2022-12-16T22:33:36;101484.61;;;-0.66;69.61
22572;BME280;11452;53.368;14.658;2022-12-16T22:39:00;101495.96;;;-0.73;69.53
22572;BME280;11452;53.368;14.658;2022-12-16T22:44:23;101506.88;;;-0.86;69.52
22572;BME280;11452;53.368;14.658;2022-12-16T22:49:47;101510.84;;;-0.80;69.64
22572;BME280;11452;53.368;14.658;2022-12-16T22:55:10;101510.78;;;-0.90;69.72
22572;BME280;11452;53.368;14.658;2022-12-16T23:00:34;101509.03;;;-0.97;69.82
22572;BME280;11452;53.368;14.658;2022-12-16T23:05:59;101512.50;;;-1.03;69.87
22572;BME280;11452;53.368;14.658;2022-12-16T23:11:32;101519.48;;;-1.13;69.75
22572;BME280;11452;53.368;14.658;2022-12-16T23:16:57;101529.48;;;-1.20;69.81
22572;BME280;11452;53.368;14.658;2022-12-16T23:22:21;101525.93;;;-1.34;69.67
22572;BME280;11452;53.368;14.658;2022-12-16T23:27:44;101523.30;;;-1.35;69.86
22572;BME280;11452;53.368;14.658;2022-12-16T23:33:08;101530.25;;;-1.41;69.88
22572;BME280;11452;53.368;14.658;2022-12-16T23:38:32;101533.28;;;-1.50;69.72
22572;BME280;11452;53.368;14.658;2022-12-16T23:43:56;101533.66;;;-1.57;69.78
22572;BME280;11452;53.368;14.658;2022-12-16T23:49:19;101534.94;;;-1.61;69.89
22572;BME280;11452;53.368;14.658;2022-12-16T23:54:43;101537.52;;;-1.66;69.87
